Data for 03/11/2010

Time Sea-Level Adjusted Pressure Absolute Pressure Temperature Relative Humidity Dew Point   
(mb) (inHg) (mb) (inHg) (C) (F) (%) (C) (F)
00:05 1016 30 845 24.95 -4.4 24 60 -11 12.2
00:10 1015 29.97 845 24.95 -4.1 24.6 60 -10.8 12.5
00:15 1015 29.97 845 24.95 -4.1 24.7 59 -10.9 12.3
00:20 1015 29.97 845 24.95 -4 24.8 58 -11 12.1
00:25 1015 29.97 845 24.95 -3.9 25.1 58 -11 12.1
00:30 1015 29.97 845 24.95 -3.7 25.4 56 -11.2 11.8
00:35 1015 29.97 845 24.95 -3.6 25.6 56 -11 12.2
00:40 1016 30 845 24.95 -3.4 25.9 55 -11.2 11.8
00:45 1016 30 845 24.95 -3.4 25.9 55 -11.1 12
00:50 1016 30 845 24.95 -3.4 25.8 56 -11.1 12
00:55 1016 30 845 24.95 -3.6 25.6 55 -11.2 11.8
01:00 1016 30 845 24.95 -3.7 25.3 56 -11.2 11.9
01:05 1016 30 845 24.95 -3.8 25.1 56 -11.4 11.4
01:10 1016 30 845 24.95 -3.9 25 57 -11.2 11.9
01:15 1016 30 845 24.95 -3.9 24.9 57 -11.2 11.8
01:20 1016 30 845 24.95 -4 24.9 57 -11.2 11.9
01:25 1016 30 845 24.95 -4 24.8 57 -11.3 11.7
01:30 1016 30 845 24.95 -4 24.7 57 -11.3 11.7
01:35 1016 30 845 24.95 -4 24.7 58 -11.2 11.8
01:40 1016 30 845 24.95 -4.1 24.7 57 -11.3 11.7
01:45 1016 30 845 24.95 -4.1 24.7 57 -11.3 11.6
01:50 1016 30 845 24.95 -4 24.8 57 -11.4 11.5
01:55 1016 30 845 24.95 -4.1 24.7 57 -11.3 11.7
02:00 1016 30 845 24.95 -4.1 24.7 57 -11.4 11.4
02:05 1016 30 845 24.95 -4.3 24.3 59 -11.2 11.9
02:10 1016 30 845 24.95 -4.5 23.9 59 -11.4 11.5
02:15 1016 30 845 24.95 -4.9 23.1 62 -11.1 12
02:20 1016 30 845 24.95 -5.5 22 64 -11.3 11.6
02:25 1016 30 845 24.95 -5.6 21.9 65 -11.2 11.9
02:30 1016 30 845 24.95 -5.6 21.8 64 -11.4 11.5
02:35 1016 30 845 24.95 -5.6 21.9 63 -11.5 11.3
02:40 1016 30 845 24.95 -5.2 22.6 62 -11.4 11.5
02:45 1016 30 845 24.95 -5.1 22.9 61 -11.4 11.4
02:50 1016 30 845 24.95 -5.2 22.6 64 -11.1 12.1
02:55 1016 30 845 24.95 -5.3 22.4 64 -11.1 12
03:00 1016 30 845 24.95 -5.4 22.4 63 -11.4 11.5
03:05 1016 30 845 24.95 -5.6 22 63 -11.6 11.2
03:10 1016 30 845 24.95 -5.5 22.2 62 -11.5 11.2
03:15 1016 30 845 24.95 -5.5 22.1 63 -11.6 11.2
03:20 1016 30 845 24.95 -5.6 21.8 62 -11.9 10.7
03:25 1016 30 845 24.95 -5.8 21.6 62 -11.9 10.6
03:30 1016 30 845 24.95 -5.9 21.3 62 -12 10.4
03:35 1016 30 845 24.95 -5.8 21.5 62 -12 10.4
03:40 1016 30 845 24.95 -5.9 21.3 62 -12.1 10.3
03:45 1016 30 845 24.95 -6.2 20.8 63 -12.2 10
03:50 1016 30 845 24.95 -6.7 20 65 -12.2 10
03:55 1016 30 845 24.95 -6.8 19.8 64 -12.4 9.6
04:00 1016 30 845 24.95 -7.1 19.2 65 -12.7 9.2
04:05 1016 30 845 24.95 -7.1 19.3 64 -12.7 9.1
04:10 1016 30 845 24.95 -7.3 18.8 65 -12.8 8.9
04:15 1016 30 845 24.95 -7.2 19 66 -12.6 9.4
04:20 1016 30 845 24.95 -7 19.3 64 -12.7 9.2
04:25 1016 30 845 24.95 -6.6 20.1 63 -12.6 9.3
04:30 1016 30 845 24.95 -6.5 20.4 62 -12.6 9.4
04:35 1016 30 845 24.95 -6.4 20.5 62 -12.6 9.4
04:40 1016 30 846 24.98 -6.2 20.9 60 -12.7 9.1
04:45 1016 30 846 24.98 -6.6 20.2 63 -12.4 9.6
04:50 1016 30 846 24.98 -6.7 19.9 64 -12.5 9.4
04:55 1016 30 846 24.98 -6.9 19.6 65 -12.4 9.7
05:00 1016 30 846 24.98 -6.8 19.8 66 -12.1 10.2
05:05 1017 30.03 846 24.98 -6.9 19.6 66 -12.2 10
05:10 1017 30.03 846 24.98 -7.1 19.3 66 -12.4 9.6
05:15 1017 30.03 846 24.98 -7.1 19.1 66 -12.4 9.6
05:20 1017 30.03 846 24.98 -7.3 19 67 -12.4 9.7
05:25 1017 30.03 846 24.98 -7.2 19 67 -12.3 9.9
05:30 1017 30.03 846 24.98 -7.2 19 68 -12.1 10.2
05:35 1017 30.03 846 24.98 -7.5 18.5 69 -12.3 9.8
05:40 1017 30.03 846 24.98 -7.7 18.2 69 -12.4 9.7
05:45 1017 30.03 846 24.98 -7.7 18.2 69 -12.4 9.8
05:50 1017 30.03 846 24.98 -8 17.6 71 -12.5 9.6
05:55 1017 30.03 846 24.98 -8.1 17.5 69 -12.7 9.1
06:00 1017 30.03 846 24.98 -8 17.6 70 -12.5 9.6
06:05 1017 30.03 846 24.98 -7.9 17.8 71 -12.2 10
06:10 1017 30.03 846 24.98 -7.8 18 71 -12.2 10.1
06:15 1017 30.03 846 24.98 -7.9 17.7 71 -12.3 9.9
06:20 1017 30.03 846 24.98 -7.9 17.7 69 -12.7 9.2
06:25 1017 30.03 846 24.98 -8 17.7 69 -12.6 9.3
06:30 1017 30.03 846 24.98 -7.9 17.7 69 -12.6 9.3
06:35 1017 30.03 846 24.98 -7.8 17.9 71 -12.2 10
06:40 1017 30.03 846 24.98 -7.8 18 70 -12.3 9.9
06:45 1017 30.03 846 24.98 -7.8 18 68 -12.8 9
06:50 1017 30.03 846 24.98 -8 17.7 70 -12.6 9.4
06:55 1017 30.03 846 24.98 -7.9 17.8 68 -12.7 9.1
07:00 1017 30.03 846 24.98 -8 17.6 68 -12.9 8.7
07:05 1017 30.03 846 24.98 -8 17.6 67 -13.2 8.3
07:10 1017 30.03 846 24.98 -8.4 16.9 68 -13.3 8
07:15 1017 30.03 847 25.01 -8.4 16.9 68 -13.3 8.1
07:20 1017 30.03 847 25.01 -8.3 17 68 -13.2 8.3
07:25 1017 30.03 847 25.01 -8.1 17.5 69 -12.8 8.9
07:30 1017 30.03 847 25.01 -7.4 18.7 65 -12.9 8.7
07:35 1017 30.03 847 25.01 -7.6 18.4 68 -12.6 9.4
07:40 1017 30.03 847 25.01 -7.5 18.5 67 -12.7 9.2
07:45 1017 30.03 847 25.01 -7.3 18.8 66 -12.5 9.4
07:50 1018 30.06 847 25.01 -7 19.5 65 -12.5 9.5
07:55 1018 30.06 847 25.01 -6.5 20.2 63 -12.5 9.5
08:00 1018 30.06 847 25.01 -6.3 20.6 62 -12.5 9.5
08:05 1018 30.06 847 25.01 -6.2 20.8 60 -12.8 9
08:10 1018 30.06 847 25.01 -5.7 21.7 59 -12.5 9.6
08:15 1018 30.06 847 25.01 -5.5 22.2 59 -12.2 10
08:20 1018 30.06 847 25.01 -5.2 22.6 60 -11.9 10.6
08:25 1018 30.06 847 25.01 -4.5 23.9 57 -11.8 10.8
08:30 1018 30.06 847 25.01 -4.2 24.4 55 -11.9 10.6
08:35 1018 30.06 847 25.01 -3.7 25.3 55 -11.5 11.2
08:40 1018 30.06 847 25.01 -3.5 25.7 54 -11.6 11.1
08:45 1018 30.06 847 25.01 -4 24.8 56 -11.7 11
08:50 1018 30.06 847 25.01 -4.4 24.1 57 -11.6 11.1
08:55 1018 30.06 847 25.01 -3.7 25.3 55 -11.6 11.1
09:00 1018 30.06 847 25.01 -3.2 26.3 53 -11.5 11.3
09:05 1018 30.06 847 25.01 -2.2 28 50 -11.3 11.6
09:10 1018 30.06 847 25.01 -1.7 29 48 -11.2 11.8
09:15 1018 30.06 847 25.01 -1.4 29.4 46 -11.7 10.9
09:20 1018 30.06 847 25.01 -1.6 29.1 47 -11.5 11.3
09:25 1018 30.06 847 25.01 -1.3 29.6 48 -11 12.2
09:30 1018 30.06 847 25.01 -1.6 29.1 49 -11 12.2
09:35 1018 30.06 847 25.01 -1.6 29.2 47 -11.5 11.3
09:40 1018 30.06 847 25.01 -1.7 28.9 48 -11.2 11.8
09:45 1018 30.06 847 25.01 -1 30.2 47 -10.9 12.4
09:50 1018 30.06 847 25.01 -0.7 30.8 46 -10.9 12.3
09:55 1018 30.06 847 25.01 -0.7 30.8 48 -10.5 13.2
10:00 1018 30.06 847 25.01 -0.5 31.2 45 -11 12.2
10:05 1018 30.06 847 25.01 -0.4 31.2 47 -10.5 13.2
10:10 1018 30.06 847 25.01 -1.5 29.4 51 -10.4 13.3
10:15 1018 30.06 847 25.01 -2.8 26.9 55 -10.7 12.7
10:20 1018 30.06 847 25.01 -3 26.6 56 -10.6 12.9
10:25 1018 30.06 847 25.01 -3 26.6 53 -11.2 11.9
10:30 1018 30.06 847 25.01 -3.2 26.3 54 -11.3 11.7
10:35 1018 30.06 847 25.01 -3.1 26.5 54 -11.2 11.9
10:40 1018 30.06 847 25.01 -2.7 27.1 52 -11.2 11.9
10:45 1018 30.06 847 25.01 -2.9 26.8 53 -11.1 12
10:50 1018 30.06 847 25.01 -2.6 27.2 52 -11.3 11.7
10:55 1018 30.06 847 25.01 -2.1 28.2 49 -11.4 11.5
11:00 1018 30.06 847 25.01 -1.6 29.1 49 -10.9 12.4
11:05 1018 30.06 847 25.01 -1.2 29.8 48 -10.9 12.4
11:10 1018 30.06 847 25.01 -0.6 30.9 47 -10.5 13.1
11:15 1018 30.06 847 25.01 -0.6 31 47 -10.5 13.1
11:20 1018 30.06 847 25.01 -0 31.9 46 -10.3 13.5
11:25 1018 30.06 847 25.01 -0 32 43 -11 12.1
11:30 1017 30.03 847 25.01 0.1 32.2 45 -10.5 13.2
11:35 1017 30.03 847 25.01 0.9 33.6 45 -9.7 14.5
11:40 1017 30.03 846 24.98 1.3 34.3 42 -10.4 13.3
11:45 1017 30.03 846 24.98 0.9 33.6 44 -10 14
11:50 1017 30.03 846 24.98 1.1 34 41 -10.8 12.5
11:55 1017 30.03 846 24.98 2.4 36.3 38 -10.6 12.9
12:00 1017 30.03 846 24.98 2.5 36.5 33 -12.1 10.3
12:05 1017 30.03 846 24.98 2.2 36 34 -12.3 9.9
12:10 1017 30.03 846 24.98 3.1 37.6 29 -13.2 8.2
12:15 1016 30 846 24.98 2.7 36.8 30 -13.3 8
12:20 1016 30 846 24.98 2.2 36 30 -13.8 7.1
12:25 1016 30 845 24.95 1.1 34 29 -15 5
12:30 1016 30 845 24.95 2 35.6 29 -14.5 5.9
12:35 1016 30 845 24.95 2.6 36.7 28 -14 6.7
12:40 1016 30 845 24.95 3.8 38.8 24 -14.9 5.2
12:45 1016 30 845 24.95 3.5 38.3 25 -14.6 5.7
12:50 1016 30 845 24.95 4 39.2 25 -14.5 6
12:55 1016 30 845 24.95 4.6 40.3 24 -14.5 5.9
13:00 1016 30 845 24.95 5.1 41.1 26 -12.7 9.1
13:05 1016 30 845 24.95 4.4 40 27 -12.9 8.7
13:10 1016 30 845 24.95 4.9 40.8 27 -12.5 9.4
13:15 1016 30 845 24.95 5.3 41.5 25 -13.2 8.3
13:20 1016 30 845 24.95 5.1 41.3 25 -13.6 7.5
13:25 1016 30 845 24.95 4.7 40.5 25 -13.8 7.1
13:30 1016 30 845 24.95 5 41 32 -10.4 13.3
13:35 1016 30 845 24.95 3.7 38.7 38 -9.3 15.2
13:40 1015 29.97 845 24.95 2.7 36.9 37 -10.4 13.2
13:45 1016 30 845 24.95 2.7 36.9 34 -11.7 10.9
13:50 1016 30 845 24.95 3.3 38 33 -11.6 11.2
13:55 1016 30 845 24.95 3.6 38.4 30 -12.3 9.9
14:00 1015 29.97 845 24.95 3.8 38.8 31 -11.9 10.6
14:05 1016 30 845 24.95 3.6 38.5 31 -11.9 10.5
14:10 1016 30 845 24.95 3.5 38.3 31 -12 10.5
14:15 1016 30 845 24.95 3.5 38.3 31 -12.1 10.2
14:20 1016 30 845 24.95 4.1 39.3 29 -12.4 9.7
14:25 1016 30 845 24.95 4.9 40.9 26 -12.9 8.8
14:30 1016 30 845 24.95 5.2 41.3 26 -13 8.6
14:35 1016 30 845 24.95 5.1 41.2 26 -12.8 9
14:40 1016 30 845 24.95 4.8 40.6 29 -11.7 11
14:45 1016 30 845 24.95 4.4 40 30 -11.8 10.8
14:50 1016 30 845 24.95 4.1 39.3 32 -11.3 11.7
14:55 1016 30 845 24.95 3.6 38.5 32 -11.6 11.1
15:00 1016 30 845 24.95 2.8 37.1 33 -11.9 10.5
15:05 1016 30 845 24.95 2.4 36.2 32 -12.7 9.1
15:10 1016 30 845 24.95 2.3 36.1 32 -12.9 8.7
15:15 1016 30 845 24.95 2.9 37.2 30 -13.2 8.3
15:20 1016 30 845 24.95 3.2 37.7 30 -12.9 8.8
15:25 1016 30 845 24.95 2.8 37.1 30 -12.9 8.7
15:30 1016 30 845 24.95 2.7 36.8 32 -12.6 9.4
15:35 1016 30 845 24.95 2.9 37.1 30 -13.1 8.4
15:40 1016 30 845 24.95 2.8 37 31 -12.9 8.8
15:45 1016 30 845 24.95 3.1 37.5 30 -13 8.6
15:50 1016 30 845 24.95 2.6 36.7 31 -12.9 8.7
15:55 1016 30 845 24.95 2.6 36.7 30 -13.3 8.1
16:00 1016 30 845 24.95 2.7 36.9 31 -12.9 8.8
16:05 1015 29.97 845 24.95 3.5 38.2 29 -13 8.6
16:10 1015 29.97 845 24.95 3.4 38.2 31 -12.2 10.1
16:15 1015 29.97 845 24.95 3.2 37.8 31 -12.3 9.9
16:20 1015 29.97 845 24.95 2.9 37.3 30 -13 8.7
16:25 1015 29.97 845 24.95 2.6 36.6 30 -13.4 7.9
16:30 1015 29.97 845 24.95 2.9 37.2 29 -13.4 7.9
16:35 1015 29.97 845 24.95 3.6 38.5 28 -13.2 8.3
16:40 1015 29.97 845 24.95 4.2 39.5 29 -12.4 9.8
16:45 1015 29.97 845 24.95 4.2 39.5 28 -12.8 8.9
16:50 1015 29.97 845 24.95 4.2 39.5 28 -12.6 9.3
16:55 1016 30 845 24.95 3.9 38.9 30 -12.2 10
17:00 1016 30 845 24.95 3.8 38.8 29 -12.8 9
17:05 1016 30 845 24.95 3.8 38.8 28 -13.2 8.2
17:10 1016 30 845 24.95 4.6 40.2 28 -12.5 9.5
17:15 1016 30 845 24.95 4.1 39.4 30 -12.2 10.1
17:20 1016 30 845 24.95 4 39.2 29 -12.5 9.6
17:25 1016 30 845 24.95 4 39.3 28 -12.7 9.1
17:30 1016 30 845 24.95 3.6 38.5 30 -12.3 9.9
17:35 1016 30 845 24.95 3.9 39 29 -12.6 9.4
17:40 1016 30 845 24.95 3.9 39 30 -12.4 9.8
17:45 1015 29.97 845 24.95 3.6 38.5 30 -12.6 9.4
17:50 1016 30 845 24.95 3.7 38.6 29 -12.6 9.3
17:55 1016 30 845 24.95 3.7 38.7 28 -13.1 8.5
18:00 1016 30 845 24.95 3.4 38.1 30 -12.6 9.3
18:05 1016 30 845 24.95 3.4 38.1 30 -12.7 9.2
18:10 1016 30 845 24.95 3 37.5 32 -12.2 10
18:15 1016 30 845 24.95 2.7 36.8 31 -12.7 9.2
18:20 1016 30 845 24.95 2.5 36.6 33 -12.3 9.8
18:25 1016 30 845 24.95 2.3 36.1 34 -11.9 10.6
18:30 1016 30 845 24.95 2.4 36.3 34 -12 10.5
18:35 1016 30 845 24.95 2.2 36 34 -12.2 10.1
18:40 1016 30 845 24.95 2.1 35.8 34 -12.2 10
18:45 1016 30 845 24.95 2.1 35.7 37 -11.3 11.7
18:50 1016 30 845 24.95 1.6 34.8 39 -10.9 12.5
18:55 1016 30 845 24.95 1.4 34.5 41 -10.5 13.1
19:00 1016 30 845 24.95 1.2 34.1 42 -10.3 13.4
19:05 1016 30 845 24.95 0.9 33.6 43 -10.3 13.4
19:10 1016 30 845 24.95 0.8 33.4 43 -10.6 12.9
19:15 1016 30 845 24.95 0.8 33.4 43 -10.4 13.3
19:20 1016 30 845 24.95 0.5 32.8 44 -10.4 13.2
19:25 1016 30 845 24.95 0.2 32.3 45 -10.3 13.5
19:30 1016 30 845 24.95 -0 31.9 46 -10.3 13.4
19:35 1016 30 845 24.95 -0.4 31.3 48 -10.1 13.8
19:40 1016 30 845 24.95 -0.7 30.8 48 -10.3 13.4
19:45 1016 30 845 24.95 -0.6 30.9 48 -10.3 13.5
19:50 1016 30 845 24.95 -0.8 30.6 49 -10.2 13.6
19:55 1016 30 845 24.95 -0.9 30.4 49 -10.2 13.7
20:00 1016 30 845 24.95 -0.8 30.6 48 -10.4 13.2
20:05 1016 30 845 24.95 -0.9 30.4 50 -10 14
20:10 1016 30 845 24.95 -1.1 30 50 -10.3 13.4
20:15 1016 30 845 24.95 -1.1 30.1 47 -10.9 12.3
20:20 1016 30 845 24.95 -0.7 30.8 46 -11 12.3
20:25 1016 30 846 24.98 -0.5 31.2 47 -10.5 13
20:30 1016 30 846 24.98 -0.5 31 44 -11.5 11.3
20:35 1016 30 846 24.98 -0.1 31.8 44 -11 12.2
20:40 1016 30 846 24.98 -0.3 31.4 47 -10.3 13.5
20:45 1016 30 846 24.98 -0.4 31.3 48 -10.1 13.8
20:50 1017 30.03 846 24.98 -0.4 31.3 48 -10 14
20:55 1017 30.03 846 24.98 -0.8 30.6 51 -9.8 14.4
21:00 1017 30.03 846 24.98 -1.3 29.7 52 -9.9 14.2
21:05 1017 30.03 846 24.98 -1.3 29.7 50 -10.5 13.1
21:10 1017 30.03 846 24.98 -0.8 30.5 49 -10.3 13.4
21:15 1017 30.03 846 24.98 -0.8 30.5 50 -10 14
21:20 1017 30.03 846 24.98 -1.1 30 51 -10 14
21:25 1017 30.03 846 24.98 -1.3 29.7 51 -10.2 13.6
21:30 1017 30.03 846 24.98 -1.3 29.6 51 -10.3 13.5
21:35 1017 30.03 846 24.98 -1.2 29.8 49 -10.5 13
21:40 1017 30.03 846 24.98 -0.7 30.7 46 -10.9 12.4
21:45 1017 30.03 846 24.98 -0.6 30.9 46 -10.8 12.5
21:50 1017 30.03 846 24.98 -0.7 30.8 47 -10.5 13
21:55 1017 30.03 846 24.98 -1 30.2 48 -10.6 12.8
22:00 1017 30.03 846 24.98 -0.7 30.7 46 -10.9 12.4
22:05 1017 30.03 846 24.98 -0.7 30.8 47 -10.6 12.9
22:10 1017 30.03 846 24.98 -0.9 30.4 48 -10.6 12.9
22:15 1017 30.03 846 24.98 -1 30.3 48 -10.7 12.8
22:20 1017 30.03 846 24.98 -1 30.3 48 -10.5 13.1
22:25 1017 30.03 846 24.98 -1 30.2 48 -10.6 12.9
22:30 1017 30.03 846 24.98 -1.1 30.1 48 -10.6 12.9
22:35 1017 30.03 846 24.98 -1 30.1 49 -10.5 13
22:40 1017 30.03 846 24.98 -1 30.1 49 -10.4 13.4
22:45 1017 30.03 846 24.98 -1.2 29.9 50 -10.3 13.5
22:50 1017 30.03 846 24.98 -1.3 29.7 49 -10.6 12.9
22:55 1017 30.03 846 24.98 -1.1 30 49 -10.5 13.1
23:00 1017 30.03 846 24.98 -1.1 30.1 49 -10.5 13.1
23:05 1017 30.03 846 24.98 -1 30.3 48 -10.5 13
23:10 1017 30.03 846 24.98 -0.8 30.6 48 -10.5 13.2
23:15 1017 30.03 846 24.98 -0.9 30.4 49 -10.4 13.3
23:20 1017 30.03 846 24.98 -0.9 30.3 49 -10.4 13.3
23:25 1017 30.03 846 24.98 -0.9 30.4 48 -10.5 13.1
23:30 1017 30.03 846 24.98 -0.7 30.7 48 -10.4 13.2
23:35 1017 30.03 846 24.98 -0.8 30.5 49 -10.3 13.5
23:40 1017 30.03 846 24.98 -0.9 30.4 48 -10.5 13.2
23:45 1017 30.03 846 24.98 -0.8 30.5 48 -10.5 13.1
23:50 1017 30.03 846 24.98 -0.7 30.7 48 -10.5 13.2
23:55 1017 30.03 846 24.98 -0.8 30.6 48 -10.4 13.3
24:00 1017 30.03 846 24.98 -0.9 30.4 48 -10.5 13.2